Airport View

Enter AWOS ICAO identifier for current METAR.

ex. KFNL

KXSA 101035Z AUTO 00000KT 5SM BR 22/22 A3008 RMK AO2 T02220222

10 Aug 2020 15:40

Frequency: 125.775

Phone: 804-445-8724

Other Area AWOS: KFYJ - KW96 - KW75 - KOFP

TAF KRIC 101120Z 1012/1112 VRB03KT 3SM BR FEW002 FM101300 VRB03KT P6SM SKC FM102000 16005KT P6SM SCT200 FM111000 00000KT 5SM BR SCT250